Time;durP1;ratioP1;P1;durP2;ratioP2;P2;SDS_P1;SDS_P2;PMS_P1;PMS_P2;Temp;Humidity;BMP_temperature;BMP_pressure;BME280_temperature;BME280_humidity;BME280_pressure;Samples;Min_cycle;Max_cycle;Signal;HPM_P1;HPM_P2
2022/01/06 00:00:09;;;;;;;;;;;19.90;42.00;;;;;;5074917;28;19924;-60
2022/01/06 00:02:35;;;;;;;;;;;20.00;42.00;;;;;;5074265;28;19912;-58
2022/01/06 00:05:00;;;;;;;;;;;19.90;41.90;;;;;;5074761;28;19954;-58
2022/01/06 00:07:27;;;;;;;;;;;19.90;42.00;;;;;;5074752;28;19919;-59
2022/01/06 00:09:53;;;;;;;;;;;19.90;42.00;;;;;;5074671;28;19952;-59
2022/01/06 00:12:24;;;;;;;;;;;19.90;42.00;;;;;;5074566;28;19978;-59
2022/01/06 00:25:31;;;;;;;;;;;19.80;42.00;;;;;;5074413;28;19915;-58
2022/01/06 00:27:57;;;;;;;;;;;19.80;41.90;;;;;;5074274;28;19908;-59
2022/01/06 00:30:22;;;;;;;;;;;19.80;42.00;;;;;;5074514;28;20249;-59
2022/01/06 00:32:48;;;;;;;;;;;19.80;41.90;;;;;;5074161;28;20288;-59
2022/01/06 00:35:13;;;;;;;;;;;19.80;41.90;;;;;;5074134;28;19909;-58
2022/01/06 00:37:39;;;;;;;;;;;19.80;41.90;;;;;;5056279;28;19919;-59
2022/01/06 00:40:04;;;;;;;;;;;19.80;41.90;;;;;;5074103;28;19930;-58
2022/01/06 00:42:30;;;;;;;;;;;19.70;41.90;;;;;;5074030;28;19939;-59
2022/01/06 00:44:55;;;;;;;;;;;19.70;41.90;;;;;;5073942;28;19919;-58
2022/01/06 00:47:21;;;;;;;;;;;19.70;41.90;;;;;;5073879;28;19909;-59
2022/01/06 00:49:46;;;;;;;;;;;19.70;41.90;;;;;;5056058;28;19923;-59
2022/01/06 00:52:12;;;;;;;;;;;19.70;41.90;;;;;;5074118;28;19917;-59
2022/01/06 00:54:38;;;;;;;;;;;19.70;41.90;;;;;;5073818;28;19908;-59
2022/01/06 00:57:04;;;;;;;;;;;19.70;41.90;;;;;;5073796;28;19995;-59
2022/01/06 00:59:29;;;;;;;;;;;19.70;41.90;;;;;;5073584;28;20361;-59
2022/01/06 01:01:55;;;;;;;;;;;19.70;41.90;;;;;;5073659;28;19916;-59
2022/01/06 01:04:20;;;;;;;;;;;19.70;41.90;;;;;;5073709;28;19921;-58
2022/01/06 01:06:46;;;;;;;;;;;19.70;41.90;;;;;;5073625;28;19908;-58
2022/01/06 01:09:11;;;;;;;;;;;19.60;41.90;;;;;;5073626;28;20011;-59
2022/01/06 01:11:38;;;;;;;;;;;19.60;41.90;;;;;;5073534;28;19912;-59
2022/01/06 01:14:26;;;;;;;;;;;19.60;41.90;;;;;;5073454;28;19915;-58
2022/01/06 01:16:55;;;;;;;;;;;19.60;41.90;;;;;;5073508;28;19916;-59
2022/01/06 01:19:21;;;;;;;;;;;19.60;41.90;;;;;;5073700;28;19923;-59
2022/01/06 01:21:46;;;;;;;;;;;19.60;42.00;;;;;;5055521;28;19908;-59
2022/01/06 01:24:12;;;;;;;;;;;19.60;42.00;;;;;;5073394;28;20267;-59
2022/01/06 01:26:38;;;;;;;;;;;19.60;42.00;;;;;;5073415;28;19909;-59
2022/01/06 01:29:03;;;;;;;;;;;19.50;42.00;;;;;;5073312;28;19916;-59
2022/01/06 01:31:35;;;;;;;;;;;19.50;42.00;;;;;;5073284;28;20287;-57
2022/01/06 01:34:08;;;;;;;;;;;19.50;41.90;;;;;;5073392;28;19908;-59
2022/01/06 01:36:33;;;;;;;;;;;19.50;41.90;;;;;;5073557;28;19912;-59
2022/01/06 01:38:59;;;;;;;;;;;19.50;41.90;;;;;;5073154;28;20034;-58
2022/01/06 01:41:24;;;;;;;;;;;19.60;41.90;;;;;;5073291;28;19923;-57
2022/01/06 01:43:50;;;;;;;;;;;19.50;41.90;;;;;;5073555;28;19919;-54
2022/01/06 01:46:19;;;;;;;;;;;19.50;41.90;;;;;;5073371;28;20371;-58
2022/01/06 01:48:59;;;;;;;;;;;19.50;41.90;;;;;;5073141;28;19908;-58
2022/01/06 01:51:24;;;;;;;;;;;19.50;41.90;;;;;;5073059;28;19912;-59
2022/01/06 01:53:50;;;;;;;;;;;19.50;41.80;;;;;;5073229;28;19957;-58
2022/01/06 01:56:15;;;;;;;;;;;19.50;41.90;;;;;;5073098;28;19909;-59
2022/01/06 01:58:41;;;;;;;;;;;19.50;41.80;;;;;;5072974;28;19926;-59
2022/01/06 02:01:06;;;;;;;;;;;19.50;41.80;;;;;;5073299;28;20000;-58
2022/01/06 02:03:32;;;;;;;;;;;19.50;41.80;;;;;;5055030;28;20360;-58
2022/01/06 02:05:57;;;;;;;;;;;19.50;41.90;;;;;;5054867;28;19999;-58
2022/01/06 02:08:23;;;;;;;;;;;19.50;41.80;;;;;;5073084;28;19908;-59
2022/01/06 02:10:48;;;;;;;;;;;19.50;41.80;;;;;;5072672;28;19908;-56
2022/01/06 02:13:15;;;;;;;;;;;19.50;41.80;;;;;;5072885;28;20003;-60
2022/01/06 02:15:41;;;;;;;;;;;19.50;41.80;;;;;;5072883;28;19960;-58
2022/01/06 02:18:06;;;;;;;;;;;19.50;41.80;;;;;;5054761;28;19915;-59
2022/01/06 02:20:32;;;;;;;;;;;19.40;41.80;;;;;;5072657;28;20374;-59
2022/01/06 02:22:57;;;;;;;;;;;19.50;41.80;;;;;;5072718;28;19908;-58
2022/01/06 02:25:30;;;;;;;;;;;19.40;41.70;;;;;;5074335;28;19909;-58
2022/01/06 02:27:56;;;;;;;;;;;19.40;41.80;;;;;;5076506;28;19909;-58
2022/01/06 02:30:23;;;;;;;;;;;19.40;41.80;;;;;;5076384;28;19995;-59
2022/01/06 02:32:49;;;;;;;;;;;19.40;41.80;;;;;;5076379;28;20339;-58
2022/01/06 02:35:19;;;;;;;;;;;19.40;41.90;;;;;;5076377;28;20008;-59
2022/01/06 02:37:44;;;;;;;;;;;19.40;41.80;;;;;;5076497;28;19909;-59
2022/01/06 02:40:12;;;;;;;;;;;19.40;41.80;;;;;;5058194;28;20299;-58
2022/01/06 02:42:42;;;;;;;;;;;19.40;41.90;;;;;;5076227;28;19909;-58
2022/01/06 02:45:08;;;;;;;;;;;19.40;41.90;;;;;;5076097;28;19974;-59
2022/01/06 02:47:33;;;;;;;;;;;19.30;41.80;;;;;;5076064;28;19939;-59
2022/01/06 02:49:59;;;;;;;;;;;19.30;41.80;;;;;;5058184;28;20311;-58
2022/01/06 02:52:24;;;;;;;;;;;19.30;41.80;;;;;;5075941;28;19917;-58
2022/01/06 02:54:50;;;;;;;;;;;19.30;41.70;;;;;;5075976;28;19912;-59
2022/01/06 02:57:15;;;;;;;;;;;19.30;41.80;;;;;;5075942;28;19923;-59
2022/01/06 02:59:41;;;;;;;;;;;19.30;41.80;;;;;;5075681;28;20288;-59
2022/01/06 03:02:06;;;;;;;;;;;19.30;41.80;;;;;;5075834;28;19948;-59
2022/01/06 03:04:32;;;;;;;;;;;19.30;41.70;;;;;;5075786;28;19908;-58
2022/01/06 03:06:57;;;;;;;;;;;19.30;41.70;;;;;;5075798;28;19915;-59
2022/01/06 03:09:35;;;;;;;;;;;19.30;41.70;;;;;;5075974;28;19909;-59
2022/01/06 03:12:01;;;;;;;;;;;19.30;41.70;;;;;;5075710;28;20429;-58
2022/01/06 03:14:26;;;;;;;;;;;19.30;41.80;;;;;;5075882;28;19967;-57
2022/01/06 03:16:52;;;;;;;;;;;19.30;41.70;;;;;;5057742;28;20352;-59
2022/01/06 03:19:17;;;;;;;;;;;19.30;41.80;;;;;;5075719;28;20287;-58
2022/01/06 03:21:42;;;;;;;;;;;19.20;41.80;;;;;;5075878;28;20297;-58
2022/01/06 03:24:08;;;;;;;;;;;19.20;41.70;;;;;;5075713;28;20275;-59
2022/01/06 03:26:33;;;;;;;;;;;19.20;41.80;;;;;;5075595;28;20283;-59
2022/01/06 03:28:59;;;;;;;;;;;19.20;41.70;;;;;;5075525;28;19909;-59
2022/01/06 03:31:24;;;;;;;;;;;19.20;41.70;;;;;;5075381;28;19924;-59
2022/01/06 03:33:51;;;;;;;;;;;19.20;41.70;;;;;;5075503;28;19919;-58
2022/01/06 03:36:16;;;;;;;;;;;19.20;41.70;;;;;;5074254;28;20027;-59
2022/01/06 03:38:42;;;;;;;;;;;19.20;41.70;;;;;;5075483;28;19959;-58
2022/01/06 03:41:07;;;;;;;;;;;19.20;41.70;;;;;;5057342;28;19954;-59
2022/01/06 03:43:33;;;;;;;;;;;19.20;41.70;;;;;;5057310;28;19908;-59
2022/01/06 03:45:58;;;;;;;;;;;19.20;41.70;;;;;;5075414;28;19974;-59
2022/01/06 03:48:24;;;;;;;;;;;19.20;41.70;;;;;;5075153;28;20371;-58
2022/01/06 03:50:49;;;;;;;;;;;19.20;41.70;;;;;;5075207;28;19955;-59
2022/01/06 03:53:14;;;;;;;;;;;19.20;41.70;;;;;;5075036;28;19913;-59
2022/01/06 03:55:40;;;;;;;;;;;19.20;41.70;;;;;;5074992;28;19919;-59
2022/01/06 03:58:05;;;;;;;;;;;19.20;41.70;;;;;;5074855;28;20082;-59
2022/01/06 04:00:31;;;;;;;;;;;19.20;41.70;;;;;;5074929;28;19951;-59
2022/01/06 04:02:57;;;;;;;;;;;19.20;41.60;;;;;;5074902;28;19908;-59
2022/01/06 04:05:22;;;;;;;;;;;19.20;41.60;;;;;;5074793;28;19908;-60
2022/01/06 04:07:48;;;;;;;;;;;19.20;41.70;;;;;;5074818;28;19951;-59
2022/01/06 04:10:13;;;;;;;;;;;19.10;41.60;;;;;;5074802;28;19908;-59
2022/01/06 04:12:39;;;;;;;;;;;19.10;41.70;;;;;;5074626;28;19927;-58
2022/01/06 04:15:09;;;;;;;;;;;19.10;41.70;;;;;;5074627;28;19909;-58
2022/01/06 04:17:34;;;;;;;;;;;19.10;41.60;;;;;;5074844;28;19915;-59
2022/01/06 04:19:59;;;;;;;;;;;19.10;41.60;;;;;;5074585;28;20003;-58
2022/01/06 04:22:25;;;;;;;;;;;19.10;41.60;;;;;;5074502;28;19930;-58
2022/01/06 04:24:50;;;;;;;;;;;19.10;41.60;;;;;;5074431;28;19913;-59
2022/01/06 04:27:16;;;;;;;;;;;19.10;41.60;;;;;;5074394;28;19914;-59
2022/01/06 04:29:41;;;;;;;;;;;19.10;41.50;;;;;;5074548;28;19916;-59
2022/01/06 04:32:07;;;;;;;;;;;19.10;41.60;;;;;;5074150;28;20015;-58
2022/01/06 04:34:33;;;;;;;;;;;19.10;41.60;;;;;;5074263;28;19908;-58
2022/01/06 04:36:59;;;;;;;;;;;19.10;41.60;;;;;;5074437;28;19987;-59
2022/01/06 04:39:25;;;;;;;;;;;19.10;41.60;;;;;;5056233;28;20311;-58
2022/01/06 04:41:51;;;;;;;;;;;19.10;41.60;;;;;;5074435;28;19938;-59
2022/01/06 04:44:16;;;;;;;;;;;19.00;41.60;;;;;;5056084;28;19908;-59
2022/01/06 04:46:42;;;;;;;;;;;19.10;41.60;;;;;;5056117;28;19908;-59
2022/01/06 04:49:07;;;;;;;;;;;19.00;41.60;;;;;;5073897;28;19909;-59
2022/01/06 04:51:33;;;;;;;;;;;19.00;41.60;;;;;;5073705;28;19962;-60
2022/01/06 04:53:58;;;;;;;;;;;19.00;41.60;;;;;;5074027;28;19998;-59
2022/01/06 04:56:24;;;;;;;;;;;19.00;41.50;;;;;;5073796;28;20322;-58
2022/01/06 04:58:49;;;;;;;;;;;19.00;41.60;;;;;;5073652;28;19920;-59
2022/01/06 05:01:15;;;;;;;;;;;19.00;41.60;;;;;;5073827;28;20325;-58
2022/01/06 05:03:40;;;;;;;;;;;19.00;41.50;;;;;;5073762;28;19920;-59
2022/01/06 05:06:06;;;;;;;;;;;19.00;41.40;;;;;;5073817;28;19908;-59
2022/01/06 05:08:31;;;;;;;;;;;19.00;41.50;;;;;;5073694;28;19909;-58
2022/01/06 05:10:57;;;;;;;;;;;19.00;41.40;;;;;;5073655;28;20275;-59
2022/01/06 05:13:22;;;;;;;;;;;19.00;41.40;;;;;;5073676;28;19965;-59
2022/01/06 05:15:47;;;;;;;;;;;19.10;41.40;;;;;;5073515;28;20005;-59
2022/01/06 05:18:13;;;;;;;;;;;19.00;41.30;;;;;;5073592;28;19909;-60
2022/01/06 05:20:42;;;;;;;;;;;19.10;41.30;;;;;;5073544;28;19912;-59
2022/01/06 05:23:08;;;;;;;;;;;19.00;41.20;;;;;;5073524;28;19944;-59
2022/01/06 05:25:34;;;;;;;;;;;19.10;41.10;;;;;;5073476;28;20469;-59
2022/01/06 05:27:59;;;;;;;;;;;19.10;41.00;;;;;;5073390;28;19944;-59
2022/01/06 05:30:25;;;;;;;;;;;19.10;40.90;;;;;;5073371;28;20003;-60
2022/01/06 05:32:51;;;;;;;;;;;19.20;40.90;;;;;;5073293;28;19920;-59
2022/01/06 05:35:16;;;;;;;;;;;19.20;40.70;;;;;;5073375;28;20289;-59
2022/01/06 05:37:42;;;;;;;;;;;19.20;40.70;;;;;;5073386;28;19908;-59
2022/01/06 05:40:07;;;;;;;;;;;19.20;40.70;;;;;;5073405;28;19915;-59
2022/01/06 05:42:33;;;;;;;;;;;19.20;40.70;;;;;;5073253;28;19916;-59
2022/01/06 05:44:58;;;;;;;;;;;19.30;40.60;;;;;;5073309;28;19909;-58
2022/01/06 05:47:24;;;;;;;;;;;19.20;40.50;;;;;;5073195;28;19930;-60
2022/01/06 05:49:49;;;;;;;;;;;19.30;40.50;;;;;;5073185;28;19916;-59
2022/01/06 05:52:15;;;;;;;;;;;19.30;40.50;;;;;;5073305;28;19916;-59
2022/01/06 05:54:40;;;;;;;;;;;19.30;40.50;;;;;;5073508;28;20037;-59
2022/01/06 05:57:07;;;;;;;;;;;19.40;40.50;;;;;;5073144;28;19916;-58
2022/01/06 05:59:32;;;;;;;;;;;19.40;40.50;;;;;;5073409;28;20284;-59
2022/01/06 06:01:58;;;;;;;;;;;19.40;40.40;;;;;;5077195;28;19924;-59
2022/01/06 06:04:23;;;;;;;;;;;19.40;40.50;;;;;;5077464;28;19999;-59
2022/01/06 06:06:49;;;;;;;;;;;19.40;40.50;;;;;;5077105;28;19909;-58
2022/01/06 06:09:14;;;;;;;;;;;19.40;40.50;;;;;;5077068;28;19939;-59
2022/01/06 06:11:40;;;;;;;;;;;19.50;40.40;;;;;;5059000;28;20256;-59
2022/01/06 06:14:05;;;;;;;;;;;19.50;40.40;;;;;;5076951;28;19913;-59
2022/01/06 06:16:31;;;;;;;;;;;19.50;40.40;;;;;;5077102;28;19909;-59
2022/01/06 06:18:56;;;;;;;;;;;19.50;40.40;;;;;;5076861;28;19916;-59
2022/01/06 06:21:22;;;;;;;;;;;19.50;40.30;;;;;;5076702;28;19908;-59
2022/01/06 06:23:47;;;;;;;;;;;19.50;40.30;;;;;;5076548;28;19908;-59
2022/01/06 06:26:13;;;;;;;;;;;19.60;40.30;;;;;;5077064;28;19908;-58
2022/01/06 06:28:38;;;;;;;;;;;19.60;40.30;;;;;;5076673;28;19947;-60
2022/01/06 06:31:04;;;;;;;;;;;19.50;40.40;;;;;;5076583;28;19912;-59
2022/01/06 06:33:29;;;;;;;;;;;19.60;40.40;;;;;;5076592;28;19918;-59
2022/01/06 06:35:55;;;;;;;;;;;19.60;40.30;;;;;;5076518;28;19931;-59
2022/01/06 06:38:20;;;;;;;;;;;19.60;40.20;;;;;;5076468;28;20047;-59
2022/01/06 06:40:46;;;;;;;;;;;19.60;40.30;;;;;;5076473;28;19915;-58
2022/01/06 06:43:12;;;;;;;;;;;19.60;40.30;;;;;;5076291;28;19915;-59
2022/01/06 06:45:38;;;;;;;;;;;19.60;40.30;;;;;;5058436;28;19908;-59
2022/01/06 06:48:03;;;;;;;;;;;19.70;40.30;;;;;;5076283;28;19912;-58
2022/01/06 06:50:29;;;;;;;;;;;19.70;40.30;;;;;;5076306;28;19915;-59
2022/01/06 06:52:54;;;;;;;;;;;19.70;40.30;;;;;;5058257;28;19956;-59
2022/01/06 06:55:20;;;;;;;;;;;19.70;40.20;;;;;;5076282;28;19912;-59
2022/01/06 06:57:45;;;;;;;;;;;19.70;40.20;;;;;;5075850;28;19909;-58
2022/01/06 07:00:11;;;;;;;;;;;19.70;40.30;;;;;;5058195;28;19959;-59
2022/01/06 07:02:36;;;;;;;;;;;19.80;40.20;;;;;;5076030;28;19912;-58
2022/01/06 07:05:02;;;;;;;;;;;19.80;40.20;;;;;;5076062;28;19908;-57
2022/01/06 07:07:28;;;;;;;;;;;19.80;40.10;;;;;;5076076;28;19916;-58
2022/01/06 07:09:54;;;;;;;;;;;19.80;40.20;;;;;;5076002;28;20368;-59
2022/01/06 07:12:19;;;;;;;;;;;19.80;40.10;;;;;;5075515;28;19916;-59
2022/01/06 07:14:45;;;;;;;;;;;19.80;40.00;;;;;;5075778;28;20015;-59
2022/01/06 07:17:10;;;;;;;;;;;19.90;40.00;;;;;;5075767;28;19962;-58
2022/01/06 07:19:36;;;;;;;;;;;19.90;40.10;;;;;;5075816;28;20043;-58
2022/01/06 07:22:02;;;;;;;;;;;19.90;40.20;;;;;;5075737;28;19909;-58
2022/01/06 07:24:27;;;;;;;;;;;19.90;40.00;;;;;;5075679;28;19916;-58
2022/01/06 07:26:53;;;;;;;;;;;19.90;40.00;;;;;;5075539;28;19916;-58
2022/01/06 07:29:18;;;;;;;;;;;19.90;39.90;;;;;;5075622;28;20360;-58
2022/01/06 07:31:44;;;;;;;;;;;20.00;39.90;;;;;;5075554;28;19913;-59
2022/01/06 07:34:09;;;;;;;;;;;20.00;39.90;;;;;;5075491;28;20391;-59
2022/01/06 07:36:35;;;;;;;;;;;20.00;39.90;;;;;;5075470;28;20352;-58
2022/01/06 07:39:00;;;;;;;;;;;20.00;39.90;;;;;;5075445;28;20398;-58
2022/01/06 07:41:26;;;;;;;;;;;20.00;39.90;;;;;;5075185;28;19908;-58
2022/01/06 07:43:51;;;;;;;;;;;20.00;39.80;;;;;;5075579;28;20386;-58
2022/01/06 07:46:17;;;;;;;;;;;20.00;39.90;;;;;;5075159;28;19909;-58
2022/01/06 07:48:56;;;;;;;;;;;20.00;39.80;;;;;;5075420;28;19971;-58
2022/01/06 07:51:22;;;;;;;;;;;20.00;39.90;;;;;;5075069;28;19916;-58
2022/01/06 07:53:48;;;;;;;;;;;20.00;39.80;;;;;;5075143;28;19916;-58
2022/01/06 07:56:13;;;;;;;;;;;20.00;39.80;;;;;;5075079;28;19908;-59
2022/01/06 07:58:38;;;;;;;;;;;20.00;40.00;;;;;;5056560;28;19924;-58
2022/01/06 08:01:04;;;;;;;;;;;20.00;39.80;;;;;;5074718;28;19966;-60
2022/01/06 08:03:29;;;;;;;;;;;20.10;39.90;;;;;;5089124;28;19908;-58
2022/01/06 08:05:55;;;;;;;;;;;20.00;39.90;;;;;;5094412;28;20344;-59
2022/01/06 08:08:20;;;;;;;;;;;20.00;40.00;;;;;;5089132;28;19916;-60
2022/01/06 08:10:46;;;;;;;;;;;20.00;40.10;;;;;;5094015;28;19947;-58
2022/01/06 08:13:11;;;;;;;;;;;20.10;39.60;;;;;;5093715;28;19916;-60
2022/01/06 08:15:37;;;;;;;;;;;20.10;39.80;;;;;;5094011;28;19991;-58
2022/01/06 08:18:02;;;;;;;;;;;20.10;39.60;;;;;;5093410;28;20287;-59
2022/01/06 08:20:28;;;;;;;;;;;20.10;39.70;;;;;;5093846;28;20190;-57
2022/01/06 08:22:53;;;;;;;;;;;20.10;39.80;;;;;;5093586;28;19915;-58
2022/01/06 08:25:19;;;;;;;;;;;20.10;39.90;;;;;;5094051;28;20268;-58
2022/01/06 08:27:44;;;;;;;;;;;20.10;39.80;;;;;;5093348;28;20314;-59
2022/01/06 08:30:10;;;;;;;;;;;20.10;39.80;;;;;;5093332;28;19908;-57
2022/01/06 08:32:35;;;;;;;;;;;20.10;40.00;;;;;;5094038;28;19916;-60
2022/01/06 08:35:01;;;;;;;;;;;20.10;39.80;;;;;;5093811;28;19912;-60
2022/01/06 08:37:26;;;;;;;;;;;20.10;39.80;;;;;;5093517;28;19912;-60
2022/01/06 08:39:52;;;;;;;;;;;20.20;39.70;;;;;;5093416;28;20273;-60
2022/01/06 08:42:17;;;;;;;;;;;20.20;39.80;;;;;;5093672;28;20344;-59
2022/01/06 08:44:43;;;;;;;;;;;20.20;39.80;;;;;;5093691;28;20038;-59
2022/01/06 08:47:09;;;;;;;;;;;20.20;39.70;;;;;;5093381;28;19999;-59
2022/01/06 08:49:35;;;;;;;;;;;20.20;39.70;;;;;;5093557;28;19915;-59
2022/01/06 08:52:01;;;;;;;;;;;20.20;39.70;;;;;;5081297;28;20398;-58
2022/01/06 08:54:26;;;;;;;;;;;20.20;39.80;;;;;;5072760;28;19995;-59
2022/01/06 08:56:52;;;;;;;;;;;20.20;39.80;;;;;;5088787;28;20375;-60
2022/01/06 08:59:17;;;;;;;;;;;20.20;39.60;;;;;;5074121;28;20385;-55
2022/01/06 09:01:43;;;;;;;;;;;20.20;39.70;;;;;;5072592;28;19948;-55
2022/01/06 09:04:09;;;;;;;;;;;20.20;39.70;;;;;;5073088;28;19908;-53
2022/01/06 09:06:34;;;;;;;;;;;20.30;39.60;;;;;;5072890;28;20291;-53
2022/01/06 09:09:00;;;;;;;;;;;20.20;39.50;;;;;;5072323;28;19963;-57
2022/01/06 09:11:25;;;;;;;;;;;20.30;39.40;;;;;;5072312;28;19960;-55
2022/01/06 09:13:51;;;;;;;;;;;20.30;39.50;;;;;;5054837;28;19948;-62
2022/01/06 09:16:16;;;;;;;;;;;20.30;39.70;;;;;;5072675;28;19962;-53
2022/01/06 09:18:42;;;;;;;;;;;20.40;39.50;;;;;;5072559;28;19908;-54
2022/01/06 09:21:08;;;;;;;;;;;20.30;39.70;;;;;;5072497;28;19908;-57
2022/01/06 09:23:34;;;;;;;;;;;20.40;39.60;;;;;;5054278;28;19909;-56
2022/01/06 09:25:59;;;;;;;;;;;20.40;39.60;;;;;;5072918;28;19908;-54
2022/01/06 09:28:25;;;;;;;;;;;20.40;39.70;;;;;;5072331;28;19909;-58
2022/01/06 09:30:51;;;;;;;;;;;20.40;39.60;;;;;;5072687;28;19919;-56
2022/01/06 09:33:20;;;;;;;;;;;20.40;39.60;;;;;;5071872;28;20283;-56
2022/01/06 09:35:46;;;;;;;;;;;20.40;39.70;;;;;;5072533;28;19915;-56
2022/01/06 09:38:12;;;;;;;;;;;20.50;39.60;;;;;;5072052;28;19915;-55
2022/01/06 09:40:39;;;;;;;;;;;20.50;39.50;;;;;;5072747;28;19916;-57
2022/01/06 09:43:04;;;;;;;;;;;20.50;39.60;;;;;;5071999;28;19909;-56
2022/01/06 09:45:32;;;;;;;;;;;20.40;39.70;;;;;;5072127;28;19931;-59
2022/01/06 09:47:57;;;;;;;;;;;20.50;39.50;;;;;;5071716;28;20356;-58
2022/01/06 09:50:23;;;;;;;;;;;20.50;39.70;;;;;;5071824;28;19999;-57
2022/01/06 09:52:50;;;;;;;;;;;20.50;39.80;;;;;;5072277;28;19923;-57
2022/01/06 09:55:15;;;;;;;;;;;20.50;39.70;;;;;;5072265;28;19961;-57
2022/01/06 09:57:48;;;;;;;;;;;20.50;39.50;;;;;;5071927;28;19912;-56
2022/01/06 10:00:14;;;;;;;;;;;20.50;39.50;;;;;;5071703;28;20382;-57
2022/01/06 10:02:39;;;;;;;;;;;20.50;39.60;;;;;;5054155;28;19912;-57
2022/01/06 10:05:05;;;;;;;;;;;20.50;39.60;;;;;;5072522;28;19909;-55
2022/01/06 10:07:34;;;;;;;;;;;20.50;39.50;;;;;;5072677;28;19999;-56
2022/01/06 10:10:04;;;;;;;;;;;20.60;39.40;;;;;;5072449;28;19908;-56
2022/01/06 10:12:29;;;;;;;;;;;20.60;39.40;;;;;;5072494;28;19916;-55
2022/01/06 10:14:55;;;;;;;;;;;20.60;39.60;;;;;;5072875;28;19909;-57
2022/01/06 10:17:33;;;;;;;;;;;20.70;39.50;;;;;;5072962;28;19912;-54
2022/01/06 10:20:09;;;;;;;;;;;20.70;39.40;;;;;;5072900;28;19908;-56
2022/01/06 10:22:42;;;;;;;;;;;20.70;39.50;;;;;;5072342;28;20054;-55
2022/01/06 10:25:08;;;;;;;;;;;20.70;39.50;;;;;;5072565;28;19908;-55
2022/01/06 10:27:33;;;;;;;;;;;20.60;39.50;;;;;;5072544;28;20245;-56
2022/01/06 10:30:04;;;;;;;;;;;20.70;39.30;;;;;;5072770;28;19915;-53
2022/01/06 10:32:31;;;;;;;;;;;20.70;39.50;;;;;;5072354;28;19923;-56
2022/01/06 10:35:02;;;;;;;;;;;20.70;39.50;;;;;;5072626;28;19908;-57
2022/01/06 10:37:41;;;;;;;;;;;20.70;39.50;;;;;;5072524;28;19916;-57
2022/01/06 10:40:09;;;;;;;;;;;20.70;39.30;;;;;;5072593;28;19915;-56
2022/01/06 10:42:35;;;;;;;;;;;20.70;39.40;;;;;;5072351;28;19909;-57
2022/01/06 10:45:07;;;;;;;;;;;20.70;39.40;;;;;;5072677;28;19908;-57
2022/01/06 10:47:38;;;;;;;;;;;20.70;39.40;;;;;;5075818;28;20430;-58
2022/01/06 10:50:18;;;;;;;;;;;20.70;39.40;;;;;;5075957;28;20413;-57
2022/01/06 10:52:45;;;;;;;;;;;20.80;39.40;;;;;;5075773;28;19954;-57
2022/01/06 10:55:16;;;;;;;;;;;20.70;39.50;;;;;;5077365;28;19912;-53
2022/01/06 10:57:55;;;;;;;;;;;20.70;39.50;;;;;;5094968;28;19916;-56
2022/01/06 11:00:22;;;;;;;;;;;20.70;39.50;;;;;;5095630;28;19955;-56
2022/01/06 11:02:47;;;;;;;;;;;20.70;39.50;;;;;;5095523;28;20394;-58
2022/01/06 11:05:14;;;;;;;;;;;20.80;39.40;;;;;;5094432;28;21639;-56
2022/01/06 11:07:40;;;;;;;;;;;20.70;39.50;;;;;;5095454;28;19973;-57
2022/01/06 11:10:14;;;;;;;;;;;20.80;39.50;;;;;;5076630;28;19961;-55
2022/01/06 11:12:39;;;;;;;;;;;20.80;39.30;;;;;;5095500;28;20032;-56
2022/01/06 11:15:05;;;;;;;;;;;20.80;39.40;;;;;;5095253;28;19916;-55
2022/01/06 11:17:30;;;;;;;;;;;20.80;39.40;;;;;;5095124;28;19947;-56
2022/01/06 11:19:56;;;;;;;;;;;20.80;39.40;;;;;;5076292;28;19961;-57
2022/01/06 11:22:25;;;;;;;;;;;20.90;39.40;;;;;;5077169;28;20344;-59
2022/01/06 11:24:54;;;;;;;;;;;20.80;39.30;;;;;;5076765;28;19915;-60
2022/01/06 11:27:30;;;;;;;;;;;20.80;39.40;;;;;;5094930;28;19934;-59
2022/01/06 11:30:05;;;;;;;;;;;20.90;39.40;;;;;;5094721;28;19949;-59
2022/01/06 11:32:31;;;;;;;;;;;20.90;39.40;;;;;;5094298;28;19985;-60
2022/01/06 11:35:01;;;;;;;;;;;20.90;39.30;;;;;;5095057;28;19912;-60
2022/01/06 11:37:37;;;;;;;;;;;20.90;39.30;;;;;;5076732;28;19999;-60
2022/01/06 11:40:03;;;;;;;;;;;20.90;39.30;;;;;;5095015;28;20420;-60
2022/01/06 11:42:28;;;;;;;;;;;20.90;39.30;;;;;;5093955;28;19931;-60
2022/01/06 11:44:55;;;;;;;;;;;20.90;39.40;;;;;;5094882;28;20367;-60
2022/01/06 11:47:30;;;;;;;;;;;20.90;39.40;;;;;;5094387;28;19954;-59
2022/01/06 11:50:06;;;;;;;;;;;20.90;39.40;;;;;;5094532;28;20003;-60
2022/01/06 11:52:32;;;;;;;;;;;20.90;39.40;;;;;;5094155;28;20015;-60
2022/01/06 11:54:57;;;;;;;;;;;20.90;39.40;;;;;;5076463;28;19990;-59
2022/01/06 11:57:30;;;;;;;;;;;20.90;39.40;;;;;;5093506;28;19908;-60
2022/01/06 11:59:57;;;;;;;;;;;21.00;39.40;;;;;;5094538;28;19931;-60
2022/01/06 12:02:23;;;;;;;;;;;21.00;39.40;;;;;;5094557;28;19915;-59
2022/01/06 12:04:59;;;;;;;;;;;21.00;39.40;;;;;;5094094;28;19908;-59
2022/01/06 12:07:25;;;;;;;;;;;21.00;39.40;;;;;;5094155;28;19915;-59
2022/01/06 12:10:06;;;;;;;;;;;21.00;39.40;;;;;;5094239;28;20364;-60
2022/01/06 12:12:32;;;;;;;;;;;21.00;39.40;;;;;;5094564;28;19920;-59
2022/01/06 12:15:24;;;;;;;;;;;21.00;39.30;;;;;;5093558;28;20375;-60
2022/01/06 12:17:54;;;;;;;;;;;21.00;39.40;;;;;;5072092;28;20351;-59
2022/01/06 12:20:20;;;;;;;;;;;21.00;39.40;;;;;;5094480;28;19915;-59
2022/01/06 12:22:46;;;;;;;;;;;21.00;39.40;;;;;;5094186;28;19908;-60
2022/01/06 12:25:12;;;;;;;;;;;21.00;39.40;;;;;;5093439;28;20261;-59
2022/01/06 12:27:48;;;;;;;;;;;21.00;39.30;;;;;;5093611;28;20238;-59
2022/01/06 12:30:14;;;;;;;;;;;21.00;39.40;;;;;;5094260;28;19908;-59
2022/01/06 12:32:40;;;;;;;;;;;21.00;39.40;;;;;;5075409;28;19920;-60
2022/01/06 12:35:06;;;;;;;;;;;21.00;39.30;;;;;;5093187;28;20287;-60
2022/01/06 12:37:31;;;;;;;;;;;21.00;39.30;;;;;;5093566;28;20374;-60
2022/01/06 12:39:57;;;;;;;;;;;21.00;39.40;;;;;;5093419;28;19954;-60
2022/01/06 12:42:23;;;;;;;;;;;21.00;39.40;;;;;;5075666;28;19908;-58
2022/01/06 12:44:49;;;;;;;;;;;21.00;39.30;;;;;;5093471;28;19973;-58
2022/01/06 12:47:14;;;;;;;;;;;21.00;39.30;;;;;;5092762;28;19908;-60
2022/01/06 12:49:40;;;;;;;;;;;21.00;39.50;;;;;;5093338;28;19915;-57
2022/01/06 12:52:06;;;;;;;;;;;21.00;39.40;;;;;;5075295;28;19969;-58
2022/01/06 12:54:33;;;;;;;;;;;21.00;39.40;;;;;;5093399;28;20343;-60
2022/01/06 12:57:02;;;;;;;;;;;21.00;39.30;;;;;;5093781;28;19915;-60
2022/01/06 12:59:34;;;;;;;;;;;21.00;39.40;;;;;;5093764;28;19920;-59
2022/01/06 13:02:02;;;;;;;;;;;21.00;39.30;;;;;;5093882;28;19908;-53
2022/01/06 13:04:29;;;;;;;;;;;21.10;39.30;;;;;;5093802;28;20002;-56
2022/01/06 13:06:58;;;;;;;;;;;21.10;39.30;;;;;;5093697;28;19973;-58
2022/01/06 13:09:28;;;;;;;;;;;21.10;39.30;;;;;;5093663;28;19912;-58
2022/01/06 13:11:54;;;;;;;;;;;21.00;39.40;;;;;;5091850;28;19920;-58
2022/01/06 13:14:36;;;;;;;;;;;21.10;39.30;;;;;;5092655;28;19908;-59
2022/01/06 13:17:17;;;;;;;;;;;21.10;39.30;;;;;;5074786;28;19908;-59
2022/01/06 13:19:51;;;;;;;;;;;21.10;39.40;;;;;;5092873;28;19989;-60
2022/01/06 13:22:25;;;;;;;;;;;21.10;39.30;;;;;;5092730;28;19908;-56
2022/01/06 13:24:50;;;;;;;;;;;21.10;39.30;;;;;;5092286;28;20351;-57
2022/01/06 13:27:16;;;;;;;;;;;21.10;39.40;;;;;;5092590;28;19978;-56
2022/01/06 13:29:43;;;;;;;;;;;21.00;39.60;;;;;;5093360;28;19908;-55
2022/01/06 13:32:08;;;;;;;;;;;21.00;39.40;;;;;;5093702;28;19939;-57
2022/01/06 13:34:39;;;;;;;;;;;21.10;39.40;;;;;;5093250;28;20360;-59
2022/01/06 13:37:04;;;;;;;;;;;21.10;39.30;;;;;;5088668;28;19908;-55
2022/01/06 13:39:34;;;;;;;;;;;21.10;39.40;;;;;;5092826;28;19931;-52
2022/01/06 13:42:00;;;;;;;;;;;21.10;39.40;;;;;;5092114;28;20276;-56
2022/01/06 13:44:25;;;;;;;;;;;21.10;39.40;;;;;;5092680;28;19908;-59
2022/01/06 13:47:06;;;;;;;;;;;21.10;39.40;;;;;;5092557;28;20371;-57
2022/01/06 13:52:19;;;;;;;;;;;21.10;39.40;;;;;;5091969;28;19950;-57
2022/01/06 13:54:44;;;;;;;;;;;21.10;39.40;;;;;;5092558;28;20283;-58
2022/01/06 13:57:10;;;;;;;;;;;21.10;39.40;;;;;;5090878;28;20008;-59
2022/01/06 13:59:38;;;;;;;;;;;21.10;39.40;;;;;;5092422;28;19920;-59
2022/01/06 14:02:03;;;;;;;;;;;21.10;39.40;;;;;;5092120;28;19908;-61
2022/01/06 14:04:31;;;;;;;;;;;21.10;39.40;;;;;;5091994;28;20009;-60
2022/01/06 14:06:57;;;;;;;;;;;21.10;39.40;;;;;;5092041;28;19958;-60
2022/01/06 14:09:22;;;;;;;;;;;21.10;39.40;;;;;;5092237;28;20382;-59
2022/01/06 14:11:48;;;;;;;;;;;21.10;39.40;;;;;;5092276;28;20424;-59
2022/01/06 14:14:13;;;;;;;;;;;21.10;39.40;;;;;;5091729;28;19908;-59
2022/01/06 14:16:39;;;;;;;;;;;21.20;39.40;;;;;;5092115;28;19962;-60
2022/01/06 14:19:04;;;;;;;;;;;21.10;39.40;;;;;;5092165;28;19908;-59
2022/01/06 14:21:30;;;;;;;;;;;21.20;39.30;;;;;;5094280;28;20046;-59
2022/01/06 14:23:55;;;;;;;;;;;21.20;39.30;;;;;;5095627;28;19955;-60
2022/01/06 14:26:21;;;;;;;;;;;21.20;39.30;;;;;;5096248;28;19912;-60